Kuujjuarapik Airport
CYGW : now visible

Airfield :











YOU CAN JOIN US ON...

 
LOGIN :

Register | Disclaimer

   EN    FR    IT 

 









Legend :    VFR   Marginal VFR   IFR   Intensive IFR   Very Intensive IFR
Visi :
Ceiling :
>= 8 km
>= 3000ft
5 to 8 km
1000 to 3000 ft
1500m to 5 km
500 to 1000 ft
800 to 1500m
200 to 500 ft
< 800m
< 200 ft
Symbols :   Thunderstorms  Fog  Heavy snow  Heavy precipitations  Wind > 20 kt







- Airport Elevation : 34 ft
- IATA code : YGW


CYGW - Kuujjuarapik

CURRENT METAR :
  • 210500Z AUTO 11008KT 9SM OVC013 05/04 A3014 RMK SLP210

EXPIRED METARs :
  • 210429Z AUTO 12007KT 9SM SCT003 OVC013 05/05 A3014 RMK SLP210
  • 210417Z AUTO 14005KT 1 1/2SM BR OVC003 05/04 A3015 RMK SLP212
  • 210400Z AUTO 12004KT 1 1/4SM BR OVC003 05/05 A3016 RMK SLP214
  • 210359Z AUTO 12004KT 1 1/2SM BR OVC003 05/05 A3016 RMK SLP214
  • 210356Z AUTO 14003KT 2 1/4SM BR OVC003 05/05 A3016 RMK SLP215
  • 210347Z AUTO 13003KT 110V200 2SM BR OVC003 05/05 A3016 RMK SLP216
  • 210328Z AUTO 10003KT 060V190 1 1/2SM BR OVC003 06/05 A3017 RMK SLP218
  • 210325Z AUTO VRB03KT 2 1/4SM BR OVC003 06/05 A3017 RMK SLP219
  • 210300Z AUTO VRB02KT 1SM BR OVC003 06/05 A3017 RMK SLP218
  • 210241Z AUTO VRB02KT 1 1/2SM BR OVC005 06/05 A3017 RMK SLP218
  • 210237Z AUTO VRB02KT 4SM BR OVC005 06/05 A3017 RMK SLP219

TAF TAF CYGW
Valid from the 21 at 00:00 until the 21 at 12:00 UTC


202338Z 2100/2112 31005KT 3/4SM -DZ -RA BR OVC003
TEMPO 2100/2104 P6SM NSW FEW003 OVC010
BECMG 2102/2104 15010KT
FM210400 17010KT 5SM -DZ BR BKN007
TEMPO 2104/2106 P6SM NSW FEW007 OVC025
FM210600 17010KT P6SM BKN020
TEMPO 2106/2112 BKN025 RMK FCST BASED ON AUTO OBS. NXT FCST BY 210600Z
No reported NOTAMs for that airfield.



MET'MAP, your aeronautical weather chart ! - Copyright ORBIFLY December 2007 - Disclaimer

ORBIFLY MET'MAP TEAM :

Programming & Development : Alexandra Zaïnal
Concept & Development : Baudouin d'Aumeries
Co-Development & Prog : Marc-Olivier Méhu
Technical & hardware support : Manuel Goepfert

Contact : metmap@orbifly.com




SOURCES & CREDITS :

   NOAA       Earth
Advisory